Time;durP1;ratioP1;P1;durP2;ratioP2;P2;SDS_P1;SDS_P2;PMS_P1;PMS_P2;Temp;Humidity;BMP_temperature;BMP_pressure;BME280_temperature;BME280_humidity;BME280_pressure;Samples;Min_cycle;Max_cycle;Signal;HPM_P1;HPM_P2
2022/06/14 00:01:22;;;;;;;2.63;1.90;;;;;;;;;;5007576;28;20211;-75
2022/06/14 00:03:48;;;;;;;3.33;2.83;;;;;;;;;;5007021;28;20490;-72
2022/06/14 00:06:17;;;;;;;3.80;2.70;;;;;;;;;;5007189;28;20740;-72
2022/06/14 00:08:43;;;;;;;3.00;2.40;;;;;;;;;;5007561;28;20234;-75
2022/06/14 00:11:10;;;;;;;2.87;2.57;;;;;;;;;;5007816;28;20943;-73
2022/06/14 00:13:35;;;;;;;4.20;2.77;;;;;;;;;;5007067;28;20209;-74
2022/06/14 00:16:00;;;;;;;5.17;2.63;;;;;;;;;;5007855;28;20539;-73
2022/06/14 00:18:26;;;;;;;3.63;2.97;;;;;;;;;;4989324;28;20260;-73
2022/06/14 00:20:52;;;;;;;2.60;2.40;;;;;;;;;;5007653;28;20684;-72
2022/06/14 00:23:17;;;;;;;2.80;2.30;;;;;;;;;;5006981;28;20675;-73
2022/06/14 00:25:47;;;;;;;3.70;2.77;;;;;;;;;;5007597;28;20220;-75
2022/06/14 00:28:14;;;;;;;3.10;2.63;;;;;;;;;;5007062;28;20228;-73
2022/06/14 00:30:40;;;;;;;5.28;2.90;;;;;;;;;;5007283;28;20196;-73
2022/06/14 00:33:06;;;;;;;4.80;3.00;;;;;;;;;;5006198;28;20854;-74
2022/06/14 00:35:31;;;;;;;4.97;2.90;;;;;;;;;;5007442;28;20226;-73
2022/06/14 00:37:57;;;;;;;5.33;2.63;;;;;;;;;;5006288;28;20272;-73
2022/06/14 00:40:24;;;;;;;6.00;3.43;;;;;;;;;;5007373;28;20219;-73
2022/06/14 00:42:49;;;;;;;3.60;3.30;;;;;;;;;;5006323;28;20205;-74
2022/06/14 00:45:14;;;;;;;3.83;2.57;;;;;;;;;;5006824;28;20203;-74
2022/06/14 00:47:52;;;;;;;3.80;2.60;;;;;;;;;;5006737;28;20232;-73
2022/06/14 00:50:22;;;;;;;4.18;2.65;;;;;;;;;;4987541;28;20259;-73
2022/06/14 00:52:48;;;;;;;4.00;2.95;;;;;;;;;;4995242;28;20754;-73
2022/06/14 00:55:26;;;;;;;3.15;2.85;;;;;;;;;;5006134;28;20705;-73
2022/06/14 00:58:17;;;;;;;7.35;2.72;;;;;;;;;;5006073;28;20773;-73
2022/06/14 01:00:52;;;;;;;2.97;2.60;;;;;;;;;;5002778;28;20220;-73
2022/06/14 01:03:20;;;;;;;3.17;2.88;;;;;;;;;;5005820;28;20545;-73
2022/06/14 01:06:06;;;;;;;3.42;2.10;;;;;;;;;;5005847;28;20614;-73
2022/06/14 01:08:33;;;;;;;2.25;2.05;;;;;;;;;;5006186;28;20461;-74
2022/06/14 01:10:58;;;;;;;4.50;3.40;;;;;;;;;;5006739;28;20278;-73
2022/06/14 01:13:24;;;;;;;3.40;2.80;;;;;;;;;;4993854;28;20259;-73
2022/06/14 01:15:50;;;;;;;3.67;2.30;;;;;;;;;;5031375;28;20230;-72
2022/06/14 01:18:16;;;;;;;4.65;2.40;;;;;;;;;;5005739;28;20423;-72
2022/06/14 01:20:42;;;;;;;2.78;2.03;;;;;;;;;;5006120;28;20211;-74
2022/06/14 01:23:09;;;;;;;4.93;3.80;;;;;;;;;;5006354;28;20208;-73
2022/06/14 01:25:45;;;;;;;4.03;3.30;;;;;;;;;;5006139;28;20447;-73
2022/06/14 01:28:12;;;;;;;4.85;2.85;;;;;;;;;;5005780;28;20529;-73
2022/06/14 01:30:48;;;;;;;3.20;2.72;;;;;;;;;;5005926;28;20287;-75
2022/06/14 01:33:26;;;;;;;3.10;2.70;;;;;;;;;;5005311;28;20310;-73
2022/06/14 01:35:57;;;;;;;3.10;2.80;;;;;;;;;;5006074;28;20220;-74
2022/06/14 01:38:22;;;;;;;4.13;2.83;;;;;;;;;;5021596;28;20255;-72
2022/06/14 01:40:49;;;;;;;4.63;2.87;;;;;;;;;;5026326;28;20244;-75
2022/06/14 01:43:35;;;;;;;4.28;2.65;;;;;;;;;;5017119;28;20209;-73
2022/06/14 01:46:10;;;;;;;3.80;3.17;;;;;;;;;;5012656;28;20287;-73
2022/06/14 01:48:53;;;;;;;4.30;3.00;;;;;;;;;;5025691;28;20213;-73
2022/06/14 01:54:40;;;;;;;3.97;3.15;;;;;;;;;;5024978;28;20218;-73
2022/06/14 01:57:11;;;;;;;5.25;3.13;;;;;;;;;;4949586;28;20245;-72
2022/06/14 01:59:40;;;;;;;3.72;3.03;;;;;;;;;;4968472;28;20234;-73
2022/06/14 02:02:23;;;;;;;2.67;2.47;;;;;;;;;;4986904;28;20191;-73
2022/06/14 02:05:08;;;;;;;4.60;2.78;;;;;;;;;;5003078;28;20677;-72
2022/06/14 02:07:33;;;;;;;5.50;3.50;;;;;;;;;;5025073;28;20209;-73
2022/06/14 02:10:02;;;;;;;3.47;3.17;;;;;;;;;;5025227;28;20300;-75
2022/06/14 02:12:36;;;;;;;4.35;3.03;;;;;;;;;;5026154;28;20194;-73
2022/06/14 02:15:20;;;;;;;4.38;2.53;;;;;;;;;;5027670;28;20229;-72
2022/06/14 02:18:05;;;;;;;4.57;2.90;;;;;;;;;;4990073;28;20639;-72
2022/06/14 02:20:38;;;;;;;3.65;2.90;;;;;;;;;;4989622;28;20250;-73
2022/06/14 02:23:05;;;;;;;3.28;2.60;;;;;;;;;;4972288;28;20207;-73
2022/06/14 02:25:34;;;;;;;2.92;2.72;;;;;;;;;;4993330;28;20209;-73
2022/06/14 02:28:09;;;;;;;5.13;2.83;;;;;;;;;;5009972;28;20226;-73
2022/06/14 02:30:37;;;;;;;3.58;3.15;;;;;;;;;;5010308;28;20206;-73
2022/06/14 02:33:02;;;;;;;5.10;3.50;;;;;;;;;;5007495;28;20466;-73
2022/06/14 02:35:35;;;;;;;4.67;3.77;;;;;;;;;;5009844;28;20290;-74
2022/06/14 02:38:12;;;;;;;4.35;3.42;;;;;;;;;;5010484;28;20247;-74
2022/06/14 02:40:42;;;;;;;3.40;3.00;;;;;;;;;;5009640;28;20205;-75
2022/06/14 02:43:13;;;;;;;5.32;3.55;;;;;;;;;;5009670;28;20203;-75
2022/06/14 02:45:42;;;;;;;3.85;2.90;;;;;;;;;;5010656;28;20191;-75
2022/06/14 02:48:10;;;;;;;3.65;3.20;;;;;;;;;;5010133;28;20249;-75
2022/06/14 02:50:40;;;;;;;3.75;2.70;;;;;;;;;;5008407;28;20207;-75
2022/06/14 02:53:09;;;;;;;2.65;2.45;;;;;;;;;;5009441;28;20199;-75
2022/06/14 02:55:37;;;;;;;5.63;4.15;;;;;;;;;;5009780;28;20223;-75
2022/06/14 02:58:11;;;;;;;4.35;3.60;;;;;;;;;;5009725;28;20228;-74
2022/06/14 03:00:47;;;;;;;5.90;3.53;;;;;;;;;;5009724;28;20221;-74
2022/06/14 03:03:17;;;;;;;4.28;3.75;;;;;;;;;;5010168;28;20209;-75
2022/06/14 03:05:45;;;;;;;4.20;3.30;;;;;;;;;;5009847;28;20662;-74
2022/06/14 03:08:19;;;;;;;3.28;2.80;;;;;;;12.49;nan;99963.47;5009024;28;20225;-74
2022/06/14 03:10:50;;;;;;;3.83;3.42;;;;;;;;;;5009423;28;20187;-75
2022/06/14 03:13:24;;;;;;;4.28;3.88;;;;;;;;;;5009118;28;20211;-74
2022/06/14 03:16:00;;;;;;;3.83;3.13;;;;;;;12.53;nan;99948.31;5009029;28;20324;-74
2022/06/14 03:18:36;;;;;;;3.22;2.78;;;;;;;;;;5010015;28;20245;-75
2022/06/14 03:21:31;;;;;;;6.05;3.63;;;;;;;12.57;nan;99948.00;5009280;28;20237;-75
2022/06/14 03:24:02;;;;;;;5.50;3.20;;;;;;;;;;5008758;28;20291;-75
2022/06/14 03:26:28;;;;;;;3.58;2.85;;;;;;;;;;5009408;28;20553;-74
2022/06/14 03:29:02;;;;;;;4.83;2.90;;;;;;;;;;5009717;28;20241;-75
2022/06/14 03:31:36;;;;;;;3.85;3.20;;;;;;;;;;4991744;28;20700;-75
2022/06/14 03:34:16;;;;;;;4.60;4.03;;;;;;;;;;5009359;28;20217;-75
2022/06/14 03:36:42;;;;;;;8.77;4.20;;;;;;;;;;5011109;28;20234;-74
2022/06/14 03:39:08;;;;;;;5.83;3.40;;;;;;;;;;5011553;28;20187;-75
2022/06/14 03:41:35;;;;;;;4.65;4.07;;;;;;;;;;5028335;28;20767;-75
2022/06/14 03:44:01;;;;;;;6.00;5.40;;;;;;;;;;4994735;28;20206;-74
2022/06/14 03:46:35;;;;;;;4.85;4.00;;;;;;;;;;5017998;28;20203;-74
2022/06/14 03:49:04;;;;;;;5.50;4.75;;;;;;;;;;5009297;28;20266;-75
2022/06/14 03:51:44;;;;;;;5.68;4.70;;;;;;;12.75;nan;99955.66;5007559;28;20325;-74
2022/06/14 03:54:09;;;;;;;5.20;4.40;;;;;;;;;;5009382;28;20205;-73
2022/06/14 03:56:53;;;;;;;7.20;4.37;;;;;;;;;;5009836;28;20523;-73
2022/06/14 03:59:28;;;;;;;4.00;3.60;;;;;;;;;;5011867;28;20297;-73
2022/06/14 04:01:59;;;;;;;10.52;4.75;;;;;;;;;;5011721;28;20194;-74
2022/06/14 04:04:39;;;;;;;4.47;4.03;;;;;;;;;;5012268;28;20199;-73
2022/06/14 04:07:04;;;;;;;7.70;4.85;;;;;;;;;;5026673;28;20226;-73
2022/06/14 04:09:30;;;;;;;5.00;4.10;;;;;;;;;;5030209;28;20691;-74
2022/06/14 04:12:13;;;;;;;4.77;4.30;;;;;;;;;;5028421;28;20206;-73
2022/06/14 04:15:04;;;;;;;7.38;4.68;;;;;;;;;;5028337;28;20668;-74
2022/06/14 04:17:49;;;;;;;4.10;3.70;;;;;;;;;;5023580;28;20759;-74
2022/06/14 04:20:14;;;;;;;7.97;4.53;;;;;;;;;;5028345;28;20206;-74
2022/06/14 04:22:42;;;;;;;5.97;4.50;;;;;;;;;;5027585;28;20202;-74
2022/06/14 04:25:25;;;;;;;6.25;4.40;;;;;;;;;;5028513;28;20199;-74
2022/06/14 04:28:02;;;;;;;5.70;5.07;;;;;;;;;;4990872;28;20290;-74
2022/06/14 04:30:30;;;;;;;9.15;4.65;;;;;;;;;;4990562;28;20242;-74
2022/06/14 04:33:19;;;;;;;7.60;4.50;;;;;;;13.21;nan;99978.91;4990888;28;20191;-74
2022/06/14 04:35:48;;;;;;;6.35;5.22;;;;;;;;;;4998552;28;20230;-75
2022/06/14 04:38:17;;;;;;;5.35;4.82;;;;;;;;;;5025870;28;20233;-75
2022/06/14 04:40:44;;;;;;;5.90;5.30;;;;;;;;;;5027145;28;20256;-74
2022/06/14 04:43:12;;;;;;;5.72;5.15;;;;;;;;;;5027474;28;20542;-74
2022/06/14 04:45:41;;;;;;;5.40;4.90;;;;;;;;;;5026385;28;20259;-74
2022/06/14 04:48:07;;;;;;;8.93;5.15;;;;;;;;;;5026458;28;20542;-75
2022/06/14 04:50:38;;;;;;;7.77;4.70;;;;;;;;;;5027849;28;20689;-74
2022/06/14 04:53:14;;;;;;;7.40;5.45;;;;;;;;;;5026916;28;20191;-74
2022/06/14 04:55:47;;;;;;;7.60;5.05;;;;;;;;;;5027244;28;20226;-73
2022/06/14 04:58:20;;;;;;;9.00;5.82;;;;;;;;;;5026868;28;20222;-74
2022/06/14 05:00:53;;;;;;;5.15;4.45;;;;;;;;;;5027006;28;20195;-74
2022/06/14 05:03:33;;;;;;;7.07;5.43;;;;;;;;;;5022483;28;20203;-74
2022/06/14 05:06:25;;;;;;;5.60;4.63;;;;;;;;;;5006592;28;20978;-73
2022/06/14 05:09:00;;;;;;;11.77;5.63;;;;;;;;;;4983478;28;20454;-74
2022/06/14 05:11:32;;;;;;;6.53;5.90;;;;;;;;;;5006202;28;20444;-74
2022/06/14 05:14:03;;;;;;;9.60;5.67;;;;;;;;;;5006483;28;20489;-74
2022/06/14 05:16:40;;;;;;;9.03;4.83;;;;;;;;;;5016458;28;21011;-73
2022/06/14 05:19:18;;;;;;;5.10;4.50;;;;;;;19.13;nan;99938.88;5026048;28;20856;-74
2022/06/14 05:22:08;;;;;;;7.23;5.43;;;;;;;19.45;nan;99935.00;5026584;28;20425;-74
2022/06/14 05:24:35;;;;;;;7.30;4.60;;;;;;;19.72;nan;99941.34;5026724;28;20439;-73
2022/06/14 05:27:06;;;;;;;6.83;5.13;;;;;;;20.02;nan;99933.03;5025927;28;20492;-74
2022/06/14 05:30:18;;;;;;;6.00;5.23;;;;;;;20.36;nan;99935.03;5025972;28;20400;-74
2022/06/14 05:32:56;;;;;;;7.10;5.60;;;;;;;20.64;nan;99930.47;5025369;28;20394;-74
2022/06/14 05:35:26;;;;;;;7.90;4.87;;;;;;;20.89;nan;99927.97;5024632;28;20457;-74
2022/06/14 05:38:29;;;;;;;6.50;4.90;;;;;;;21.15;nan;99928.00;5006347;28;20564;-74
2022/06/14 05:41:37;;;;;;;6.40;5.33;;;;;;;21.38;nan;99923.78;5005744;28;20923;-74
2022/06/14 05:44:44;;;;;;;5.73;4.27;;;;;;;21.58;nan;99924.41;4968295;28;20857;-74
2022/06/14 05:47:16;;;;;;;7.70;4.97;;;;;;;21.74;nan;99930.78;4995064;28;20447;-74
2022/06/14 05:49:49;;;;;;;5.20;4.70;;;;;;;22.03;nan;99933.88;5005316;28;20778;-74
2022/06/14 05:52:21;;;;;;;8.63;5.40;;;;;;;22.24;nan;99930.78;5005724;28;20527;-74
2022/06/14 05:54:52;;;;;;;6.03;4.27;;;;;;;22.31;nan;99931.81;5005840;28;20451;-75
2022/06/14 05:57:29;;;;;;;5.80;5.27;;;;;;;22.53;nan;99932.16;5005128;28;20958;-74
2022/06/14 06:00:18;;;;;;;5.57;5.07;;;;;;;22.78;nan;99922.25;5005744;28;20828;-74
2022/06/14 06:02:54;;;;;;;7.35;5.28;;;;;;;23.07;nan;99923.59;5005186;28;20821;-74
2022/06/14 06:05:43;;;;;;;4.83;4.27;;;;;;;23.26;nan;99919.69;5006030;28;20669;-75
2022/06/14 06:08:19;;;;;;;4.77;4.37;;;;;;;23.21;nan;99925.56;5005786;28;20467;-74
2022/06/14 06:10:48;;;;;;;5.57;4.90;;;;;;;23.30;nan;99918.34;5006282;28;20518;-74
2022/06/14 06:13:22;;;;;;;4.93;4.43;;;;;;;23.49;nan;99915.25;5005474;28;20451;-75
2022/06/14 06:15:51;;;;;;;8.00;4.73;;;;;;;23.58;nan;99918.75;5005952;28;20945;-75
2022/06/14 06:18:34;;;;;;;4.30;3.90;;;;;;;23.61;nan;99913.88;5005091;28;20467;-75
2022/06/14 06:21:10;;;;;;;6.50;4.53;;;;;;;23.67;nan;99916.84;5005692;28;20450;-75
2022/06/14 06:24:14;;;;;;;5.87;4.50;;;;;;;23.89;nan;99920.63;5005753;28;21056;-75
2022/06/14 06:26:42;;;;;;;7.43;4.50;;;;;;;23.85;nan;99912.13;5006136;28;20922;-75
2022/06/14 06:29:15;;;;;;;5.77;4.70;;;;;;;23.93;nan;99917.44;5005501;28;20458;-74
2022/06/14 06:31:44;;;;;;;7.57;4.57;;;;;;;24.26;nan;99917.22;5005349;28;20800;-74
2022/06/14 06:34:11;;;;;;;4.87;4.00;;;;;;;24.23;nan;99923.78;5004995;28;20442;-75
2022/06/14 06:36:47;;;;;;;4.60;4.20;;;;;;;24.23;nan;99921.09;5004608;28;20838;-75
2022/06/14 06:39:38;;;;;;;6.10;4.00;;;;;;;24.14;nan;99922.19;5005156;28;20799;-74
2022/06/14 06:42:10;;;;;;;3.77;3.47;;;;;;;24.32;nan;99921.03;5004606;28;20450;-74
2022/06/14 06:44:53;;;;;;;6.10;4.83;;;;;;;24.45;nan;99911.38;4986970;28;20434;-74
2022/06/14 06:47:36;;;;;;;9.30;4.90;;;;;;;24.69;nan;99913.03;5005207;28;20504;-74
2022/06/14 06:50:01;;;;;;;10.00;5.00;;;;;;;25.00;nan;99909.38;5003977;28;20782;-74
2022/06/14 06:52:41;;;;;;;5.53;4.40;;;;;;;25.34;nan;99916.94;5006089;28;20457;-75
2022/06/14 06:55:13;;;;;;;5.70;4.20;;;;;;;25.30;nan;99906.72;5005117;28;20609;-74
2022/06/14 06:57:43;;;;;;;7.20;4.97;;;;;;;25.40;nan;99912.66;5005026;28;20472;-74
2022/06/14 07:00:13;;;;;;;6.63;4.53;;;;;;;25.50;nan;99905.16;5005342;28;20765;-75
2022/06/14 07:02:50;;;;;;;8.10;7.00;;;;;;;25.62;nan;99908.19;5007924;28;20460;-74
2022/06/14 07:05:17;;;;;;;7.17;5.30;;;;;;;25.67;nan;99907.63;5008595;28;20507;-74
2022/06/14 07:07:49;;;;;;;6.67;5.80;;;;;;;25.82;nan;99909.25;5008994;28;20956;-74
2022/06/14 07:10:37;;;;;;;5.83;5.23;;;;;;;26.06;nan;99896.53;5007672;28;20443;-74
2022/06/14 07:13:20;;;;;;;6.50;5.17;;;;;;;26.20;nan;99898.31;5009031;28;20931;-74
2022/06/14 07:16:26;;;;;;;6.57;5.23;;;;;;;26.40;nan;99900.34;5008619;28;20961;-74
2022/06/14 07:19:05;;;;;;;7.10;5.20;;;;;;;26.41;nan;99899.31;4999723;28;20510;-74
2022/06/14 07:21:41;;;;;;;8.73;5.63;;;;;;;26.46;nan;99894.19;5009074;28;20452;-75
2022/06/14 07:24:15;;;;;;;5.63;5.10;;;;;;;26.64;nan;99897.28;5008866;28;20932;-75
2022/06/14 07:26:46;;;;;;;5.30;4.90;;;;;;;26.70;nan;99893.78;5008833;28;20458;-75
2022/06/14 07:29:26;;;;;;;5.93;5.43;;;;;;;26.64;nan;99896.44;5008885;28;20485;-75
2022/06/14 07:32:16;;;;;;;9.47;5.30;;;;;;;26.61;nan;99891.47;5008551;28;20454;-75
2022/06/14 07:34:42;;;;;;;4.77;4.27;;;;;;;26.83;nan;99884.16;5008356;28;20424;-76
2022/06/14 07:37:30;;;;;;;5.80;5.17;;;;;;;27.09;nan;99887.03;5008187;28;20512;-75
2022/06/14 07:40:05;;;;;;;6.07;4.63;;;;;;;27.26;nan;99886.72;5008472;28;20442;-73
2022/06/14 07:42:50;;;;;;;7.27;5.17;;;;;;;27.25;nan;99882.38;5008476;28;20445;-74
2022/06/14 07:45:21;;;;;;;7.10;4.90;;;;;;;26.95;nan;99895.22;5007905;28;20451;-74
2022/06/14 07:47:58;;;;;;;6.00;4.93;;;;;;;26.77;nan;99896.56;5007753;28;20959;-74
2022/06/14 07:50:40;;;;;;;8.03;4.80;;;;;;;26.68;nan;99890.47;5008148;28;20803;-73
2022/06/14 07:53:11;;;;;;;6.37;5.30;;;;;;;26.54;nan;99885.16;5008560;28;20471;-75
2022/06/14 07:55:51;;;;;;;6.00;5.37;;;;;;;26.49;nan;99880.31;4991090;28;20519;-74
2022/06/14 07:58:24;;;;;;;8.37;6.10;;;;;;;26.69;nan;99880.53;5007140;28;20806;-74
2022/06/14 08:01:08;;;;;;;9.30;5.40;;;;;;;26.89;nan;99873.41;5007855;28;20438;-74
2022/06/14 08:03:48;;;;;;;6.47;5.50;;;;;;;26.99;nan;99869.53;5007990;28;20458;-74
2022/06/14 08:06:27;;;;;;;5.10;4.60;;;;;;;27.13;nan;99868.56;5007367;28;20432;-74
2022/06/14 08:09:09;;;;;;;8.57;5.33;;;;;;;27.05;nan;99866.03;5008051;28;20435;-74
2022/06/14 08:11:49;;;;;;;5.57;4.90;;;;;;;26.92;nan;99861.41;5006734;28;20544;-74
2022/06/14 08:14:32;;;;;;;6.70;5.20;;;;;;;26.75;nan;99860.88;5007660;28;20495;-74
2022/06/14 08:17:00;;;;;;;5.20;4.63;;;;;;;26.63;nan;99863.28;5006938;28;20480;-74
2022/06/14 08:19:31;;;;;;;8.40;5.00;;;;;;;26.56;nan;99848.94;5007419;28;20464;-74
2022/06/14 08:22:04;;;;;;;6.20;5.53;;;;;;;26.59;nan;99859.31;5008051;28;20492;-74
2022/06/14 08:24:36;;;;;;;6.00;4.73;;;;;;;26.48;nan;99849.88;5007413;28;20999;-75
2022/06/14 08:27:23;;;;;;;8.20;5.20;;;;;;;26.46;nan;99846.56;5007481;28;20492;-75
2022/06/14 08:30:03;;;;;;;8.13;5.13;;;;;;;26.37;nan;99844.19;5007251;28;20848;-75
2022/06/14 08:32:43;;;;;;;6.37;5.77;;;;;;;26.30;nan;99843.28;5006843;28;20432;-74
2022/06/14 08:35:14;;;;;;;5.40;4.93;;;;;;;26.25;nan;99843.88;4988943;28;20490;-74
2022/06/14 08:37:47;;;;;;;6.53;4.73;;;;;;;26.15;nan;99833.44;5006238;28;20477;-73
2022/06/14 08:40:28;;;;;;;7.67;4.90;;;;;;;26.13;nan;99838.16;5007282;28;20429;-73
2022/06/14 08:43:00;;;;;;;6.70;4.90;;;;;;;26.27;nan;99836.44;5008234;28;20503;-73
2022/06/14 08:45:35;;;;;;;8.17;4.50;;;;;;;26.44;nan;99837.84;5006246;28;33287;-73
2022/06/14 08:48:00;;;;;;;5.07;4.57;;;;;;;26.42;nan;99825.59;5007306;28;20564;-75
2022/06/14 08:50:48;;;;;;;4.17;3.77;;;;;;;26.40;nan;99836.53;5006374;28;20935;-75
2022/06/14 08:53:13;;;;;;;4.50;4.10;;;;;;;26.67;nan;99829.53;5006272;28;20217;-75
2022/06/14 08:56:05;;;;;;;6.27;4.40;;;;;;;26.81;nan;99830.44;5007179;28;20482;-75
2022/06/14 08:58:39;;;;;;;6.47;4.00;;;;;;;26.88;nan;99825.09;5006564;28;20230;-75
2022/06/14 09:01:29;;;;;;;5.30;4.80;;;;;;;26.85;nan;99825.50;5006481;28;20446;-75
2022/06/14 09:04:10;;;;;;;5.03;4.53;;;;;;;26.93;nan;99819.94;5006607;28;20546;-73
2022/06/14 09:06:54;;;;;;;8.60;4.87;;;;;;;26.96;nan;99814.16;5005999;28;20557;-75
2022/06/14 09:09:29;;;;;;;4.77;4.20;;;;;;;26.80;nan;99815.31;5006038;28;20936;-76
2022/06/14 09:12:12;;;;;;;8.50;4.10;;;;;;;26.87;nan;99809.97;5006265;28;20837;-75
2022/06/14 09:15:06;;;;;;;6.73;4.27;;;;;;;27.18;nan;99814.09;5006917;28;20520;-75
2022/06/14 09:17:57;;;;;;;4.10;3.70;;;;;;;27.21;nan;99803.72;5006280;28;20474;-75
2022/06/14 09:21:02;;;;;;;4.20;3.80;;;;;;;27.32;nan;99791.53;5006071;28;20485;-76
2022/06/14 09:23:46;;;;;;;6.43;3.87;;;;;;;27.45;nan;99796.97;5006119;28;20440;-74
2022/06/14 09:26:30;;;;;;;8.27;4.13;;;;;;;27.61;nan;99790.38;5006033;28;20440;-74
2022/06/14 09:29:30;;;;;;;4.53;3.40;;;;;;;27.73;nan;99785.19;5005778;28;20441;-74
2022/06/14 09:32:24;;;;;;;5.27;4.03;;;;;;;27.82;nan;99786.72;4986727;28;20528;-74
2022/06/14 09:35:06;;;;;;;4.20;3.23;;;;;;;28.02;nan;99786.72;4986130;28;20454;-76
2022/06/14 09:38:09;;;;;;;5.37;3.63;;;;;;;28.19;nan;99781.72;4985443;28;20695;-74
2022/06/14 09:40:47;;;;;;;4.43;3.43;;;;;;;28.22;nan;99784.03;4986174;28;20467;-75
2022/06/14 09:43:18;;;;;;;4.90;3.60;;;;;;;28.17;nan;99773.84;4980481;28;20979;-75
2022/06/14 09:45:56;;;;;;;5.13;3.50;;;;;;;28.16;nan;99771.34;4986574;28;20447;-75
2022/06/14 09:48:55;;;;;;;5.03;4.07;;;;;;;28.11;nan;99774.69;4986306;28;20506;-74
2022/06/14 09:51:39;;;;;;;8.73;3.90;;;;;;;28.12;nan;99775.50;4966321;28;20453;-75
2022/06/14 09:54:22;;;;;;;4.87;3.70;;;;;;;28.29;nan;99757.00;4986145;28;20483;-75
2022/06/14 09:56:51;;;;;;;5.37;2.90;;;;;;;28.35;nan;99766.97;4986106;28;20479;-75
2022/06/14 09:59:44;;;;;;;3.60;3.23;;;;;;;28.19;nan;99760.97;4985536;28;20453;-75
2022/06/14 10:02:23;;;;;;;13.23;4.03;;;;;;;28.09;nan;99759.72;4986353;28;20467;-74
2022/06/14 10:05:04;;;;;;;4.80;3.43;;;;;;;28.05;nan;99755.78;4985163;28;21015;-74
2022/06/14 10:07:49;;;;;;;3.83;3.30;;;;;;;28.08;nan;99747.25;4985787;28;20480;-74
2022/06/14 10:10:31;;;;;;;4.43;4.03;;;;;;;28.20;nan;99748.28;4985926;28;20460;-77
2022/06/14 10:13:02;;;;;;;4.67;3.40;;;;;;;28.42;nan;99746.19;4986271;28;20457;-74
2022/06/14 10:15:43;;;;;;;3.90;3.00;;;;;;;28.58;nan;99734.94;4985460;28;20476;-74
2022/06/14 10:18:42;;;;;;;4.53;3.97;;;;;;;28.83;nan;99723.44;4986426;28;20494;-76
2022/06/14 10:21:12;;;;;;;6.80;3.30;;;;;;;28.97;nan;99724.22;4985973;28;20421;-75
2022/06/14 10:23:49;;;;;;;7.70;4.20;;;;;;;29.06;nan;99729.19;4985887;28;20460;-75
2022/06/14 10:29:24;;;;;;;6.77;3.00;;;;;;;28.76;nan;99720.78;4989420;28;20530;-74
2022/06/14 10:31:52;;;;;;;5.70;4.53;;;;;;;28.83;nan;99707.22;4986455;28;20440;-75
2022/06/14 10:34:31;;;;;;;7.13;3.63;;;;;;;28.82;nan;99711.81;4986750;28;20459;-76
2022/06/14 10:37:36;;;;;;;3.63;3.30;;;;;;;28.84;nan;99715.13;4988722;28;20553;-76
2022/06/14 10:40:46;;;;;;;5.73;3.50;;;;;;;28.75;nan;99713.69;4989055;28;20475;-76
2022/06/14 10:43:41;;;;;;;4.93;3.57;;;;;;;28.59;nan;99711.47;4986876;28;20993;-76
2022/06/14 10:46:21;;;;;;;4.20;3.30;;;;;;;28.44;nan;99704.44;4986324;28;21026;-75
2022/06/14 10:49:37;;;;;;;4.53;3.50;;;;;;;28.49;nan;99702.94;4989864;28;20609;-76
2022/06/14 10:52:12;;;;;;;2.93;2.70;;;;;;;28.70;nan;99697.28;4966941;28;20448;-75
2022/06/14 10:55:16;;;;;;;4.80;3.80;;;;;;;28.88;nan;99694.72;4989671;28;20521;-75
2022/06/14 10:58:05;;;;;;;3.00;2.80;;;;;;;29.06;nan;99690.50;4989454;28;20471;-75
2022/06/14 11:00:37;;;;;;;4.77;2.80;;;;;;;29.02;nan;99687.34;4989559;28;20479;-75
2022/06/14 11:03:27;;;;;;;5.10;3.27;;;;;;;28.92;nan;99680.75;4988925;28;20448;-75
2022/06/14 11:06:21;;;;;;;4.87;3.40;;;;;;;28.94;nan;99682.19;4989067;28;20476;-75
2022/06/14 11:09:10;;;;;;;3.73;2.90;;;;;;;29.00;nan;99680.50;4989569;28;20475;-75
2022/06/14 11:11:54;;;;;;;4.17;3.40;;;;;;;29.07;nan;99670.53;4990287;28;20460;-74
2022/06/14 11:14:44;;;;;;;4.57;3.07;;;;;;;29.07;nan;99665.94;4992243;28;21032;-75
2022/06/14 11:18:04;;;;;;;6.90;3.27;;;;;;;28.92;nan;99659.94;4990956;28;20484;-74
2022/06/14 11:20:56;;;;;;;4.07;3.03;;;;;;;28.93;nan;99658.09;4927872;29;20924;-75
2022/06/14 11:23:52;;;;;;;3.33;3.13;;;;;;;28.88;nan;99653.31;4971752;28;20518;-76
2022/06/14 11:26:43;;;;;;;6.97;3.77;;;;;;;28.81;nan;99647.97;4988458;28;20448;-75
2022/06/14 11:29:41;;;;;;;3.50;3.20;;;;;;;28.76;nan;99646.94;4989816;28;20958;-76
2022/06/14 11:32:15;;;;;;;3.37;3.00;;;;;;;28.81;nan;99645.25;4988841;28;20448;-78
2022/06/14 11:34:55;;;;;;;4.53;2.90;;;;;;;28.85;nan;99648.34;4989499;28;20448;-76
2022/06/14 11:37:35;;;;;;;5.53;2.97;;;;;;;28.88;nan;99637.94;4990611;28;20480;-75
2022/06/14 11:40:15;;;;;;;4.20;3.40;;;;;;;28.85;nan;99635.66;4990589;28;20518;-74
2022/06/14 11:43:00;;;;;;;4.83;4.33;;;;;;;28.86;nan;99631.91;4991206;28;20467;-75
2022/06/14 11:45:28;;;;;;;4.57;3.37;;;;;;;28.83;nan;99626.09;4990871;28;20893;-75
2022/06/14 11:48:16;;;;;;;4.10;3.33;;;;;;;28.81;nan;99629.03;4988919;28;20460;-74
2022/06/14 11:51:06;;;;;;;3.60;3.10;;;;;;;28.77;nan;99624.28;4988868;28;20943;-74
2022/06/14 11:53:44;;;;;;;4.23;3.07;;;;;;;28.78;nan;99620.50;4980517;28;20468;-75
2022/06/14 11:56:45;;;;;;;3.87;3.57;;;;;;;28.71;nan;99620.56;4989062;28;20491;-75
2022/06/14 11:59:31;;;;;;;4.43;3.63;;;;;;;28.69;nan;99617.25;4971457;28;20954;-75
2022/06/14 12:02:20;;;;;;;3.23;3.03;;;;;;;28.61;nan;99612.09;4988675;28;20487;-75
2022/06/14 12:05:04;;;;;;;3.70;3.33;;;;;;;28.56;nan;99601.09;4988361;28;20614;-75
2022/06/14 12:07:36;;;;;;;3.07;2.77;;;;;;;28.65;nan;99600.63;4988360;28;20480;-75
2022/06/14 12:10:39;;;;;;;5.90;2.97;;;;;;;28.63;nan;99600.00;4989317;28;21045;-75
2022/06/14 12:13:07;;;;;;;7.20;3.13;;;;;;;28.69;nan;99598.31;4989102;28;20436;-75
2022/06/14 12:15:41;;;;;;;3.33;2.80;;;;;;;28.79;nan;99598.69;4988141;28;21067;-75
2022/06/14 12:18:11;;;;;;;3.90;3.60;;;;;;;28.85;nan;99592.41;4988282;28;20930;-75
2022/06/14 12:21:03;;;;;;;4.07;2.90;;;;;;;28.86;nan;99599.47;4988428;28;20448;-75
2022/06/14 12:23:37;;;;;;;3.07;2.83;;;;;;;28.86;nan;99588.66;4987634;28;20416;-75
2022/06/14 12:28:56;;;;;;;3.23;2.93;;;;;;;28.87;nan;99587.63;4987963;28;20821;-75
2022/06/14 12:31:32;;;;;;;3.73;3.07;;;;;;;28.83;nan;99593.66;4987709;28;20970;-76
2022/06/14 12:34:05;;;;;;;4.20;3.80;;;;;;;28.72;nan;99591.66;4987594;28;20879;-76
2022/06/14 12:36:42;;;;;;;5.17;3.10;;;;;;;28.75;nan;99580.41;4986594;28;20862;-75
2022/06/14 12:39:18;;;;;;;3.77;3.20;;;;;;;28.82;nan;99576.63;4987757;28;21019;-74
2022/06/14 12:41:59;;;;;;;4.33;2.83;;;;;;;28.84;nan;99574.53;4988063;28;20954;-75
2022/06/14 12:44:30;;;;;;;8.67;2.87;;;;;;;28.86;nan;99569.72;4987388;28;21107;-75
2022/06/14 12:47:00;;;;;;;4.83;3.20;;;;;;;28.83;nan;99575.56;4987372;28;20479;-75
2022/06/14 12:49:33;;;;;;;4.40;3.37;;;;;;;28.84;nan;99568.28;4987621;28;20946;-75
2022/06/14 12:52:13;;;;;;;6.53;3.47;;;;;;;28.83;nan;99562.03;4988033;28;20444;-75
2022/06/14 12:54:51;;;;;;;4.63;3.03;;;;;;;28.79;nan;99560.84;4987211;28;20452;-75
2022/06/14 12:57:40;;;;;;;6.60;3.57;;;;;;;28.67;nan;99562.56;4987788;28;20456;-75
2022/06/14 13:00:12;;;;;;;3.10;2.67;;;;;;;28.67;nan;99554.47;4988065;28;20433;-76
2022/06/14 13:02:59;;;;;;;2.80;2.60;;;;;;;28.78;nan;99553.75;4987357;28;20539;-75
2022/06/14 13:05:32;;;;;;;3.30;3.00;;;;;;;28.88;nan;99547.88;4986774;28;20448;-73
2022/06/14 13:08:16;;;;;;;4.00;3.43;;;;;;;28.97;nan;99540.31;4986936;28;20519;-74
2022/06/14 13:10:48;;;;;;;3.93;3.00;;;;;;;28.87;nan;99547.06;4987679;28;20998;-74
2022/06/14 13:13:48;;;;;;;4.53;3.50;;;;;;;28.79;nan;99539.22;4987848;28;20452;-74
2022/06/14 13:16:20;;;;;;;3.90;3.50;;;;;;;28.78;nan;99536.72;4986722;28;20483;-73
2022/06/14 13:19:07;;;;;;;3.17;2.93;;;;;;;28.74;nan;99528.22;4987040;28;20452;-74
2022/06/14 13:21:52;;;;;;;5.60;3.40;;;;;;;28.61;nan;99531.00;4986558;28;20986;-74
2022/06/14 13:24:36;;;;;;;4.50;3.50;;;;;;;28.62;nan;99527.25;4987428;28;20830;-73
2022/06/14 13:27:12;;;;;;;4.00;3.10;;;;;;;28.74;nan;99525.53;4987415;28;20468;-75
2022/06/14 13:30:14;;;;;;;5.00;3.73;;;;;;;28.78;nan;99534.00;4987461;28;20448;-75
2022/06/14 13:33:00;;;;;;;6.17;3.50;;;;;;;28.79;nan;99525.69;4980418;28;20456;-75
2022/06/14 13:35:34;;;;;;;3.83;3.43;;;;;;;28.85;nan;99519.41;4986537;28;20766;-75
2022/06/14 13:38:06;;;;;;;5.40;3.33;;;;;;;28.89;nan;99517.09;4985290;28;20901;-74
2022/06/14 13:40:36;;;;;;;5.20;3.40;;;;;;;28.89;nan;99517.94;4969071;28;20971;-74
2022/06/14 13:43:05;;;;;;;3.87;3.47;;;;;;;28.87;nan;99520.03;4986440;28;21326;-75
2022/06/14 13:45:46;;;;;;;3.17;2.90;;;;;;;28.85;nan;99508.59;4987069;28;20465;-75
2022/06/14 13:48:19;;;;;;;6.07;3.63;;;;;;;28.87;nan;99509.22;4986577;28;20460;-75
2022/06/14 13:51:03;;;;;;;5.57;3.67;;;;;;;28.92;nan;99507.72;4966938;28;20952;-74